Weather at Hopewell Airport [CLOSED]

Public forecast

Using degrees Celsius for public forecast. Weather courtesy of forecast.io.

Closest aviation weather report (METAR) to Hopewell Airport

Report is more than 6 hours old.

Closest report is Halifax / Stanfield International Airport, 48.9 nm (90.6 km) SW.

2024/06/24 21:00 (retrieved 6 hours ago)

CYHZ 242100Z 19008KT 1/8SM R23/3000V4000FT/U R14/P6000FT/U FG VV002 17/17 A2959 RMK FG8 SLP022 DENSITY ALT 1200FT

Closest aviation forecast (TAF) to Hopewell Airport

Closest forecast is Halifax / Stanfield International Airport, 48.9 nm (90.6 km) SW.

2024/06/24 21:42 (retrieved 6 hours ago)

TAF CYHZ 242040Z 2421/2518 19010KT 1/2SM FG OVC002 TEMPO 2421/2504 1/8SM -SHRA FG PROB30 2501/2504 3/4SM +TSRA BR OVC008CB FM250400 VRB03KT 1/4SM -SHRA FG VV002 PROB40 2504/2512 1/8SM FG FM251200 05007KT P6SM OVC004 FM251700 08007KT P6SM -SHRA SCT006 OVC012 RMK NXT FCST BY 250000Z